createdAt,value
2018-12-23T00:01:45.701Z,79.04
2018-12-23T00:04:15.070Z,78.55
2018-12-23T00:06:44.084Z,78.65
2018-12-23T00:09:13.395Z,78.54
2018-12-23T00:11:42.200Z,78.51
2018-12-23T00:14:11.219Z,79.00
2018-12-23T00:16:39.964Z,78.58
2018-12-23T00:19:08.878Z,78.81
2018-12-23T00:21:37.571Z,78.58
2018-12-23T00:24:06.516Z,78.46
2018-12-23T00:26:35.446Z,78.28
2018-12-23T00:29:04.750Z,78.01
2018-12-23T00:31:33.411Z,78.22
2018-12-23T00:34:02.198Z,77.94
2018-12-23T00:36:31.124Z,78.24
2018-12-23T00:38:59.929Z,78.11
2018-12-23T00:41:28.910Z,78.07
2018-12-23T00:43:58.038Z,77.82
2018-12-23T00:46:26.793Z,78.17
2018-12-23T00:48:55.869Z,78.29
2018-12-23T00:51:25.087Z,78.66
2018-12-23T00:53:53.986Z,78.91
2018-12-23T00:56:22.846Z,78.36
2018-12-23T00:58:51.764Z,78.42
2018-12-23T01:01:20.837Z,78.65
2018-12-23T01:03:50.745Z,78.54
2018-12-23T01:06:20.073Z,77.84
2018-12-23T01:08:48.868Z,78.22
2018-12-23T01:11:17.783Z,78.21
2018-12-23T01:13:46.804Z,78.33
2018-12-23T01:16:15.673Z,78.64
2018-12-23T01:18:44.554Z,78.50
2018-12-23T01:21:13.756Z,78.18
2018-12-23T01:23:42.677Z,78.09
2018-12-23T01:26:11.850Z,78.17
2018-12-23T01:28:41.303Z,78.25
2018-12-23T01:31:10.173Z,78.05
2018-12-23T01:33:39.329Z,78.17
2018-12-23T01:36:08.589Z,78.34
2018-12-23T01:38:37.578Z,78.60
2018-12-23T01:41:06.694Z,78.15
2018-12-23T01:43:35.462Z,78.58
2018-12-23T01:46:04.288Z,78.61
2018-12-23T01:48:33.374Z,78.67
2018-12-23T01:51:02.312Z,78.87
2018-12-23T01:53:31.081Z,78.31
2018-12-23T01:56:00.743Z,78.42
2018-12-23T01:58:29.501Z,78.02
2018-12-23T02:00:58.490Z,78.46
2018-12-23T02:03:27.536Z,78.77
2018-12-23T02:05:56.472Z,78.14
2018-12-23T02:08:25.252Z,77.72
2018-12-23T02:10:54.562Z,78.16
2018-12-23T02:13:23.328Z,78.18
2018-12-23T02:15:51.975Z,78.18
2018-12-23T02:18:21.033Z,78.92
2018-12-23T02:20:50.001Z,78.53
2018-12-23T02:23:19.103Z,78.71
2018-12-23T02:25:48.114Z,78.47
2018-12-23T02:28:16.786Z,78.03
2018-12-23T02:30:45.856Z,78.48
2018-12-23T02:33:14.742Z,78.56
2018-12-23T02:35:43.761Z,78.26
2018-12-23T02:38:12.848Z,78.38
2018-12-23T02:40:41.573Z,78.48
2018-12-23T02:43:10.478Z,77.92
2018-12-23T02:45:39.270Z,77.84
2018-12-23T02:48:08.091Z,77.41
2018-12-23T02:50:36.892Z,77.35
2018-12-23T02:53:05.732Z,78.40
2018-12-23T02:55:34.786Z,77.27
2018-12-23T02:58:03.675Z,78.34
2018-12-23T03:00:32.617Z,77.38
2018-12-23T03:03:01.634Z,78.15
2018-12-23T03:05:30.672Z,78.13
2018-12-23T03:07:59.408Z,77.79
2018-12-23T03:10:28.992Z,77.53
2018-12-23T03:12:57.671Z,77.65
2018-12-23T03:15:26.480Z,77.43
2018-12-23T03:17:55.563Z,76.87
2018-12-23T03:20:24.455Z,76.24
2018-12-23T03:22:53.217Z,77.23
2018-12-23T03:25:22.313Z,76.22
2018-12-23T03:27:51.045Z,76.70
2018-12-23T03:30:19.735Z,76.45
2018-12-23T03:32:48.853Z,76.20
2018-12-23T03:35:17.567Z,77.15
2018-12-23T03:37:46.536Z,77.16
2018-12-23T03:40:15.588Z,77.11
2018-12-23T03:42:44.318Z,77.29
2018-12-23T03:45:13.021Z,76.54
2018-12-23T03:47:41.843Z,77.57
2018-12-23T03:50:10.800Z,77.08
2018-12-23T03:52:39.643Z,77.00
2018-12-23T03:55:08.669Z,77.11
2018-12-23T03:57:37.431Z,77.05
2018-12-23T04:00:06.632Z,76.69
2018-12-23T04:02:35.284Z,76.96
2018-12-23T04:05:05.210Z,77.30
2018-12-23T04:07:34.253Z,76.79
2018-12-23T04:10:03.042Z,77.00
2018-12-23T04:12:32.182Z,77.52
2018-12-23T04:15:01.189Z,77.70
2018-12-23T04:17:30.297Z,77.34
2018-12-23T04:19:59.312Z,77.56
2018-12-23T04:22:28.171Z,77.45
2018-12-23T04:24:57.001Z,77.43
2018-12-23T04:27:26.035Z,77.82
2018-12-23T04:29:55.226Z,77.33
2018-12-23T04:32:24.168Z,77.82
2018-12-23T04:34:52.996Z,78.00
2018-12-23T04:37:21.952Z,77.86
2018-12-23T04:39:50.779Z,78.06
2018-12-23T04:42:19.448Z,78.49
2018-12-23T04:44:49.236Z,78.34
2018-12-23T04:47:18.274Z,77.98
2018-12-23T04:49:47.234Z,78.39
2018-12-23T04:52:15.986Z,78.65
2018-12-23T04:54:44.772Z,78.84
2018-12-23T04:57:14.025Z,79.32
2018-12-23T04:59:43.046Z,79.31
2018-12-23T05:02:11.808Z,79.09
2018-12-23T05:04:40.800Z,78.85
2018-12-23T05:07:09.902Z,78.86
2018-12-23T05:09:38.909Z,79.02
2018-12-23T05:12:08.065Z,78.61
2018-12-23T05:14:36.979Z,78.63
2018-12-23T05:17:05.940Z,78.73
2018-12-23T05:19:34.776Z,78.30
2018-12-23T05:22:03.680Z,78.49
2018-12-23T05:24:32.714Z,78.26
2018-12-23T05:27:01.629Z,78.41
2018-12-23T05:29:30.855Z,78.50
2018-12-23T05:31:59.649Z,78.99
2018-12-23T05:34:28.565Z,78.73
2018-12-23T05:38:00.952Z,78.39
2018-12-23T05:40:30.070Z,78.73
2018-12-23T05:42:59.333Z,79.21
2018-12-23T05:45:28.290Z,78.93
2018-12-23T05:47:57.609Z,79.01
2018-12-23T05:50:26.323Z,78.57
2018-12-23T05:52:55.501Z,78.88
2018-12-23T05:55:26.165Z,78.51
2018-12-23T05:57:55.275Z,78.42
2018-12-23T06:00:24.392Z,78.70
2018-12-23T06:02:53.028Z,78.55
2018-12-23T06:05:21.788Z,78.57
2018-12-23T06:07:51.112Z,78.18
2018-12-23T06:10:19.999Z,78.19
2018-12-23T06:12:48.798Z,78.06
2018-12-23T06:15:17.793Z,78.32
2018-12-23T06:17:47.113Z,78.19
2018-12-23T06:20:16.195Z,78.52
2018-12-23T06:22:45.185Z,78.26
2018-12-23T06:25:14.253Z,78.29
2018-12-23T06:27:43.524Z,78.55
2018-12-23T06:30:12.726Z,78.31
2018-12-23T06:33:44.895Z,78.57
2018-12-23T06:36:13.986Z,78.38
2018-12-23T06:38:42.873Z,78.55
2018-12-23T06:41:11.943Z,78.57
2018-12-23T06:43:40.661Z,78.53
2018-12-23T06:46:11.048Z,78.10
2018-12-23T06:48:40.302Z,78.18
2018-12-23T06:51:09.516Z,78.68
2018-12-23T06:53:38.878Z,77.94
2018-12-23T06:56:07.834Z,77.96
2018-12-23T06:58:36.857Z,77.96
2018-12-23T07:01:06.053Z,78.07
2018-12-23T07:03:35.135Z,77.79
2018-12-23T07:06:04.177Z,77.93
2018-12-23T07:08:33.218Z,77.59
2018-12-23T07:11:05.199Z,77.49
2018-12-23T07:13:34.613Z,77.54
2018-12-23T07:16:03.726Z,77.15
2018-12-23T07:18:32.691Z,77.58
2018-12-23T07:21:01.780Z,77.34
2018-12-23T07:23:30.902Z,77.36
2018-12-23T07:25:59.831Z,77.21
2018-12-23T07:28:28.939Z,76.83
2018-12-23T07:30:57.864Z,77.71
2018-12-23T07:33:26.760Z,77.03
2018-12-23T07:35:55.760Z,77.31
2018-12-23T07:38:24.788Z,76.62
2018-12-23T07:40:53.521Z,77.40
2018-12-23T07:43:22.493Z,78.20
2018-12-23T07:45:51.623Z,77.65
2018-12-23T07:48:20.535Z,77.68
2018-12-23T07:50:49.928Z,77.23
2018-12-23T07:53:18.957Z,77.76
2018-12-23T07:55:47.993Z,77.71
2018-12-23T07:58:16.912Z,78.01
2018-12-23T08:00:46.045Z,78.39
2018-12-23T08:03:15.363Z,78.33
2018-12-23T08:05:44.387Z,78.42
2018-12-23T08:08:13.288Z,78.69
2018-12-23T08:10:43.057Z,78.69
2018-12-23T08:13:11.790Z,78.18
2018-12-23T08:15:40.894Z,78.50
2018-12-23T08:18:10.115Z,78.38
2018-12-23T08:20:39.381Z,78.26
2018-12-23T08:23:08.515Z,77.81
2018-12-23T08:25:37.394Z,77.52
2018-12-23T08:28:06.374Z,77.49
2018-12-23T08:30:35.464Z,77.09
2018-12-23T08:34:07.437Z,76.90
2018-12-23T08:36:36.345Z,76.81
2018-12-23T08:39:06.821Z,76.92
2018-12-23T08:41:35.874Z,77.15
2018-12-23T08:44:04.958Z,77.16
2018-12-23T08:46:39.085Z,77.22
2018-12-23T08:49:05.018Z,77.00
2018-12-23T08:51:34.177Z,77.39
2018-12-23T08:54:03.083Z,76.62
2018-12-23T08:56:32.304Z,76.56
2018-12-23T08:59:01.448Z,77.09
2018-12-23T09:01:30.916Z,77.08
2018-12-23T09:04:00.503Z,77.00
2018-12-23T09:06:29.478Z,76.46
2018-12-23T09:08:58.632Z,76.82
2018-12-23T09:11:27.677Z,76.97
2018-12-23T09:13:56.919Z,75.92
2018-12-23T09:16:25.908Z,76.33
2018-12-23T09:18:55.039Z,76.26
2018-12-23T09:21:24.210Z,76.20
2018-12-23T09:23:54.274Z,75.86
2018-12-23T09:26:23.230Z,75.63
2018-12-23T09:28:52.180Z,75.71
2018-12-23T09:31:21.418Z,75.51
2018-12-23T09:33:51.724Z,75.43
2018-12-23T09:36:51.492Z,75.83
2018-12-23T09:39:20.542Z,75.87
2018-12-23T09:41:49.535Z,76.16
2018-12-23T09:44:18.526Z,76.08
2018-12-23T09:46:47.400Z,75.93
2018-12-23T09:49:16.605Z,75.85
2018-12-23T09:51:45.695Z,75.78
2018-12-23T09:54:15.610Z,75.42
2018-12-23T09:56:44.977Z,75.00
2018-12-23T09:59:13.957Z,74.70
2018-12-23T10:01:43.058Z,75.37
2018-12-23T10:04:12.165Z,75.73
2018-12-23T10:06:41.218Z,75.43
2018-12-23T10:09:10.580Z,74.84
2018-12-23T10:11:39.481Z,75.18
2018-12-23T10:14:08.212Z,75.15
2018-12-23T10:16:37.419Z,75.10
2018-12-23T10:19:06.379Z,75.58
2018-12-23T10:21:35.464Z,75.80
2018-12-23T10:24:04.708Z,75.65
2018-12-23T10:26:33.757Z,74.82
2018-12-23T10:29:02.967Z,74.66
2018-12-23T10:31:31.969Z,74.63
2018-12-23T10:34:00.784Z,74.78
2018-12-23T10:36:29.808Z,74.83
2018-12-23T10:38:59.047Z,75.15
2018-12-23T10:41:27.832Z,75.20
2018-12-23T10:43:56.840Z,74.71
2018-12-23T10:46:25.507Z,75.10
2018-12-23T10:48:54.443Z,74.89
2018-12-23T10:51:23.535Z,74.44
2018-12-23T10:53:52.507Z,74.68
2018-12-23T10:56:21.340Z,74.70
2018-12-23T10:58:50.135Z,75.36
2018-12-23T11:01:19.176Z,75.86
2018-12-23T11:03:47.899Z,75.13
2018-12-23T11:06:16.846Z,75.25
2018-12-23T11:08:45.511Z,75.02
2018-12-23T11:11:14.552Z,74.51
2018-12-23T11:13:43.215Z,73.49
2018-12-23T11:16:12.064Z,74.24
2018-12-23T11:18:41.262Z,74.43
2018-12-23T11:21:10.669Z,74.40
2018-12-23T11:23:40.001Z,74.71
2018-12-23T11:26:08.747Z,73.84
2018-12-23T11:28:37.832Z,74.14
2018-12-23T11:31:06.570Z,74.75
2018-12-23T11:33:35.279Z,74.53
2018-12-23T11:36:04.109Z,74.63
2018-12-23T11:38:35.574Z,75.23
2018-12-23T11:41:04.394Z,74.97
2018-12-23T11:43:33.354Z,75.23
2018-12-23T11:46:02.238Z,77.19
2018-12-23T11:48:30.929Z,76.53
2018-12-23T11:50:59.636Z,75.66
2018-12-23T11:53:28.289Z,76.25
2018-12-23T11:55:56.982Z,76.58
2018-12-23T11:58:25.744Z,76.52
2018-12-23T12:00:54.511Z,76.61
2018-12-23T12:03:23.398Z,76.72
2018-12-23T12:05:52.395Z,76.85
2018-12-23T12:08:21.175Z,76.93
2018-12-23T12:10:49.994Z,76.84
2018-12-23T12:13:19.371Z,76.81
2018-12-23T12:15:48.081Z,77.30
2018-12-23T12:18:17.344Z,76.97
2018-12-23T12:20:46.043Z,76.80
2018-12-23T12:23:15.015Z,76.39
2018-12-23T12:25:43.799Z,76.57
2018-12-23T12:28:12.460Z,76.96
2018-12-23T12:30:41.343Z,75.61
2018-12-23T12:33:10.305Z,75.41
2018-12-23T12:35:39.205Z,76.05
2018-12-23T12:38:07.942Z,76.03
2018-12-23T12:40:36.880Z,75.20
2018-12-23T12:43:05.641Z,75.59
2018-12-23T12:45:34.725Z,76.35
2018-12-23T12:48:03.460Z,76.51
2018-12-23T12:50:32.252Z,76.24
2018-12-23T12:53:01.993Z,76.50
2018-12-23T12:55:30.766Z,76.69
2018-12-23T12:57:59.546Z,76.32
2018-12-23T13:00:28.305Z,75.87
2018-12-23T13:02:57.057Z,75.84
2018-12-23T13:05:25.881Z,76.23
2018-12-23T13:07:55.149Z,75.96
2018-12-23T13:10:24.175Z,75.75
2018-12-23T13:12:53.348Z,76.07
2018-12-23T13:15:22.871Z,75.99
2018-12-23T13:17:51.688Z,75.92
2018-12-23T13:20:20.535Z,76.41
2018-12-23T13:22:49.252Z,76.01
2018-12-23T13:25:18.249Z,75.57
2018-12-23T13:27:47.155Z,75.22
2018-12-23T13:30:16.083Z,75.36
2018-12-23T13:32:44.863Z,75.20
2018-12-23T13:35:14.059Z,74.38
2018-12-23T13:37:42.824Z,74.89
2018-12-23T13:42:23.076Z,75.07
2018-12-23T13:45:33.202Z,75.91
2018-12-23T13:50:14.051Z,75.99
2018-12-23T13:52:50.783Z,75.96
2018-12-23T13:56:36.085Z,75.42
2018-12-23T13:59:15.113Z,75.84
2018-12-23T14:01:55.349Z,76.08
2018-12-23T14:04:39.928Z,75.78
2018-12-23T14:08:03.314Z,75.77
2018-12-23T14:11:00.250Z,75.75
2018-12-23T14:13:29.172Z,75.76
2018-12-23T14:15:57.934Z,75.64
2018-12-23T14:18:26.739Z,75.76
2018-12-23T14:20:55.636Z,75.50
2018-12-23T14:23:24.436Z,75.10
2018-12-23T14:29:24.271Z,75.60
2018-12-23T14:31:52.986Z,75.98
2018-12-23T14:34:21.770Z,75.79
2018-12-23T14:36:51.242Z,75.12
2018-12-23T14:39:26.155Z,75.14
2018-12-23T14:41:51.424Z,75.50
2018-12-23T14:44:20.431Z,75.99
2018-12-23T14:46:49.561Z,76.47
2018-12-23T14:49:18.339Z,76.02
2018-12-23T14:51:47.605Z,75.90
2018-12-23T14:54:16.621Z,75.74
2018-12-23T14:56:45.776Z,76.64
2018-12-23T14:59:14.823Z,76.21
2018-12-23T15:01:43.789Z,75.78
2018-12-23T15:04:12.826Z,75.49
2018-12-23T15:06:41.892Z,75.14
2018-12-23T15:09:11.361Z,75.39
2018-12-23T15:11:40.463Z,75.47
2018-12-23T15:14:09.476Z,75.18
2018-12-23T15:16:38.715Z,74.79
2018-12-23T15:19:08.067Z,74.96
2018-12-23T15:21:37.029Z,74.72
2018-12-23T15:24:06.232Z,74.98
2018-12-23T15:26:35.341Z,74.97
2018-12-23T15:29:05.187Z,74.75
2018-12-23T15:31:34.608Z,74.96
2018-12-23T15:34:03.723Z,75.09
2018-12-23T15:36:32.383Z,74.46
2018-12-23T15:39:01.283Z,74.29
2018-12-23T15:41:30.205Z,74.35
2018-12-23T15:43:58.986Z,74.32
2018-12-23T15:46:28.078Z,74.15
2018-12-23T15:48:57.567Z,74.20
2018-12-23T15:51:26.377Z,74.42
2018-12-23T15:53:55.408Z,74.83
2018-12-23T15:56:24.699Z,75.01
2018-12-23T15:58:53.397Z,74.86
2018-12-23T16:01:22.496Z,75.15
2018-12-23T16:03:51.600Z,75.17
2018-12-23T16:06:20.919Z,74.97
2018-12-23T16:08:50.007Z,74.49
2018-12-23T16:11:19.034Z,74.12
2018-12-23T16:13:47.844Z,74.04
2018-12-23T16:16:16.668Z,74.55
2018-12-23T16:18:45.536Z,74.41
2018-12-23T16:21:14.343Z,74.41
2018-12-23T16:23:43.138Z,74.37
2018-12-23T16:26:11.899Z,74.41
2018-12-23T16:28:40.727Z,74.35
2018-12-23T16:31:09.804Z,74.55
2018-12-23T16:33:39.495Z,74.82
2018-12-23T16:36:08.312Z,74.77
2018-12-23T16:38:37.384Z,74.09
2018-12-23T16:41:06.487Z,74.33
2018-12-23T16:43:35.433Z,74.11
2018-12-23T16:46:04.761Z,74.14
2018-12-23T16:48:33.592Z,74.05
2018-12-23T16:51:02.412Z,73.83
2018-12-23T16:53:31.215Z,73.27
2018-12-23T16:55:59.941Z,73.60
2018-12-23T16:58:28.723Z,73.56
2018-12-23T17:00:57.806Z,73.80
2018-12-23T17:03:26.709Z,74.04
2018-12-23T17:05:55.420Z,74.34
2018-12-23T17:08:24.209Z,74.35
2018-12-23T17:10:53.514Z,74.58
2018-12-23T17:13:22.407Z,74.66
2018-12-23T17:15:51.156Z,74.80
2018-12-23T17:18:19.972Z,75.14
2018-12-23T17:20:48.788Z,75.07
2018-12-23T17:23:17.527Z,74.81
2018-12-23T17:25:46.211Z,75.37
2018-12-23T17:28:14.931Z,74.98
2018-12-23T17:30:43.781Z,75.28
2018-12-23T17:33:12.973Z,75.18
2018-12-23T17:35:41.638Z,75.31
2018-12-23T17:38:10.895Z,74.52
2018-12-23T17:40:39.863Z,74.46
2018-12-23T17:43:08.748Z,74.53
2018-12-23T17:45:38.427Z,74.12
2018-12-23T17:48:07.436Z,74.71
2018-12-23T17:50:36.521Z,74.63
2018-12-23T17:53:05.607Z,75.52
2018-12-23T17:55:34.293Z,74.38
2018-12-23T17:58:03.175Z,73.75
2018-12-23T18:00:32.071Z,73.82
2018-12-23T18:03:01.134Z,74.19
2018-12-23T18:05:29.901Z,73.79
2018-12-23T18:07:58.592Z,73.55
2018-12-23T18:10:27.627Z,73.55
2018-12-23T18:12:56.502Z,73.31
2018-12-23T18:15:27.070Z,74.12
2018-12-23T18:17:56.003Z,73.49
2018-12-23T18:20:24.737Z,73.64
2018-12-23T18:22:53.467Z,73.99
2018-12-23T18:25:22.396Z,73.30
2018-12-23T18:27:51.197Z,73.63
2018-12-23T18:30:19.982Z,73.59
2018-12-23T18:32:48.728Z,73.29
2018-12-23T18:35:17.881Z,73.47
2018-12-23T18:37:47.145Z,73.26
2018-12-23T18:40:15.871Z,73.50
2018-12-23T18:42:44.721Z,73.25
2018-12-23T18:45:13.512Z,73.89
2018-12-23T18:47:42.240Z,73.42
2018-12-23T18:50:11.136Z,73.50
2018-12-23T18:52:40.149Z,72.99
2018-12-23T18:55:08.835Z,73.54
2018-12-23T18:57:42.238Z,73.22
2018-12-23T19:00:12.051Z,72.92
2018-12-23T19:02:47.252Z,73.25
2018-12-23T19:05:16.456Z,73.53
2018-12-23T19:07:47.940Z,73.25
2018-12-23T19:12:32.703Z,73.41
2018-12-23T19:16:13.124Z,73.95
2018-12-23T19:19:10.232Z,73.86
2018-12-23T19:22:49.639Z,73.62
2018-12-23T19:25:29.437Z,73.43
2018-12-23T19:28:24.935Z,72.91
2018-12-23T19:31:15.671Z,73.76
2018-12-23T19:36:57.896Z,73.73
2018-12-23T19:39:39.595Z,73.74
2018-12-23T19:42:23.316Z,73.23
2018-12-23T19:45:26.170Z,73.53
2018-12-23T19:48:18.039Z,73.93
2018-12-23T19:51:00.718Z,74.00
2018-12-23T19:53:58.276Z,73.12
2018-12-23T19:56:44.739Z,74.18
2018-12-23T19:59:57.810Z,74.61
2018-12-23T20:02:38.409Z,74.30
2018-12-23T20:05:19.698Z,74.04
2018-12-23T20:08:06.297Z,74.28
2018-12-23T20:14:52.881Z,73.77
2018-12-23T20:17:32.555Z,76.75
2018-12-23T20:21:20.008Z,76.65
2018-12-23T20:23:59.964Z,77.54
2018-12-23T20:27:04.394Z,78.20
2018-12-23T20:31:45.096Z,78.17
2018-12-23T20:36:39.652Z,77.71
2018-12-23T20:39:24.055Z,77.40
2018-12-23T20:42:39.240Z,77.27
2018-12-23T20:47:27.055Z,76.90
2018-12-23T20:52:18.844Z,75.54
2018-12-23T20:55:29.311Z,75.54
2018-12-23T20:58:27.934Z,75.12
2018-12-23T21:01:22.967Z,74.71
2018-12-23T21:08:10.809Z,75.08
2018-12-23T21:10:59.539Z,75.02
2018-12-23T21:15:55.303Z,75.46
2018-12-23T21:18:47.897Z,75.59
2018-12-23T21:22:30.058Z,78.04
2018-12-23T21:25:11.576Z,77.19
2018-12-23T21:27:56.991Z,74.65
2018-12-23T21:30:41.989Z,73.57
2018-12-23T21:33:21.849Z,72.85
2018-12-23T21:37:37.411Z,72.27
2018-12-23T21:40:17.863Z,72.11
2018-12-23T21:43:32.063Z,73.24
2018-12-23T21:46:42.714Z,73.41
2018-12-23T21:49:27.023Z,73.42
2018-12-23T21:53:15.081Z,73.23
2018-12-23T21:55:59.880Z,73.05
2018-12-23T22:00:50.415Z,72.57
2018-12-23T22:03:46.731Z,73.11
2018-12-23T22:06:32.019Z,73.99
2018-12-23T22:11:18.810Z,73.48
2018-12-23T22:13:47.636Z,73.91
2018-12-23T22:16:16.399Z,74.74
2018-12-23T22:18:45.247Z,74.73
2018-12-23T22:21:13.960Z,74.97
2018-12-23T22:23:42.970Z,75.18
2018-12-23T22:26:11.710Z,74.75
2018-12-23T22:28:40.699Z,74.41
2018-12-23T22:31:09.807Z,74.34
2018-12-23T22:33:39.022Z,73.49
2018-12-23T22:36:07.736Z,73.55
2018-12-23T22:42:28.618Z,73.52
2018-12-23T22:48:19.213Z,74.91
2018-12-23T22:50:48.662Z,74.29
2018-12-23T22:53:57.563Z,73.78
2018-12-23T23:05:44.262Z,73.86
2018-12-23T23:08:13.650Z,73.80
2018-12-23T23:10:43.114Z,73.42
2018-12-23T23:13:51.993Z,73.44
2018-12-23T23:19:23.300Z,73.90
2018-12-23T23:22:32.993Z,73.95
2018-12-23T23:25:02.472Z,73.80
2018-12-23T23:27:34.063Z,73.93
2018-12-23T23:30:03.502Z,73.78
2018-12-23T23:32:33.769Z,73.86
2018-12-23T23:38:17.254Z,73.88
2018-12-23T23:43:56.331Z,73.69
2018-12-23T23:49:27.507Z,73.81
2018-12-23T23:55:06.949Z,75.33
